Time;durP1;ratioP1;P1;durP2;ratioP2;P2;SDS_P1;SDS_P2;PMS_P1;PMS_P2;Temp;Humidity;BMP_temperature;BMP_pressure;BME280_temperature;BME280_humidity;BME280_pressure;Samples;Min_cycle;Max_cycle;Signal;HPM_P1;HPM_P2
2024/01/27 00:01:30;;;;;;;4.78;1.40;;;;;;;2.75;100.00;99943.22;6108510;19;20054;-73
2024/01/27 00:03:31;;;;;;;10.90;2.00;;;;;;;2.75;100.00;99939.66;6109760;19;20078;-73
2024/01/27 00:05:31;;;;;;;11.30;1.90;;;;;;;2.74;100.00;99941.59;6105735;19;20466;-73
2024/01/27 00:07:31;;;;;;;8.05;1.92;;;;;;;2.69;100.00;99941.63;6106417;19;20010;-73
2024/01/27 00:09:32;;;;;;;6.00;1.60;;;;;;;2.70;100.00;99940.53;6107800;19;20015;-73
2024/01/27 00:11:32;;;;;;;5.72;2.00;;;;;;;2.67;100.00;99943.84;6107793;19;20007;-73
2024/01/27 00:13:32;;;;;;;8.57;1.50;;;;;;;2.65;100.00;99937.84;6108006;19;20011;-73
2024/01/27 00:15:33;;;;;;;6.03;1.48;;;;;;;2.71;100.00;99935.88;6107743;19;20062;-72
2024/01/27 00:17:35;;;;;;;4.70;1.20;;;;;;;2.70;100.00;99939.72;6108132;19;20432;-73
2024/01/27 00:19:35;;;;;;;4.20;1.30;;;;;;;2.64;100.00;99930.75;6107525;19;20011;-73
2024/01/27 00:21:36;;;;;;;7.45;1.50;;;;;;;2.63;100.00;99942.78;6108097;19;20556;-73
2024/01/27 00:23:36;;;;;;;6.50;2.45;;;;;;;2.56;100.00;99936.84;6108501;19;20006;-73
2024/01/27 00:25:37;;;;;;;3.40;1.10;;;;;;;2.50;100.00;99938.84;6106863;19;20003;-72
2024/01/27 00:27:37;;;;;;;6.82;1.40;;;;;;;2.60;100.00;99951.56;6107726;19;20007;-73
2024/01/27 00:29:37;;;;;;;4.28;1.65;;;;;;;2.57;100.00;99941.22;6107699;19;20002;-73
2024/01/27 00:31:37;;;;;;;3.42;1.00;;;;;;;2.57;100.00;99937.69;6108529;19;20010;-72
2024/01/27 00:33:38;;;;;;;5.25;1.55;;;;;;;2.48;100.00;99945.66;6107011;19;20086;-73
2024/01/27 00:35:38;;;;;;;4.13;1.25;;;;;;;2.47;100.00;99946.78;6107389;19;20015;-73
2024/01/27 00:37:39;;;;;;;5.80;1.45;;;;;;;2.52;100.00;99949.47;6107591;19;20362;-72
2024/01/27 00:39:40;;;;;;;8.38;1.80;;;;;;;2.45;100.00;99954.44;6106745;19;20014;-73
2024/01/27 00:41:40;;;;;;;5.03;1.45;;;;;;;2.37;100.00;99950.44;6108095;19;20026;-72
2024/01/27 00:43:41;;;;;;;10.25;2.03;;;;;;;2.32;100.00;99953.22;6108228;19;20002;-72
2024/01/27 00:45:41;;;;;;;5.15;1.67;;;;;;;2.27;100.00;99947.81;6107102;19;20516;-72
2024/01/27 00:47:41;;;;;;;4.10;1.50;;;;;;;2.23;100.00;99955.75;6104016;19;20009;-73
2024/01/27 00:49:41;;;;;;;3.53;1.50;;;;;;;2.10;100.00;99961.06;6099991;19;20471;-73
2024/01/27 00:51:42;;;;;;;4.28;1.30;;;;;;;2.05;100.00;99958.38;6099942;19;20020;-73
2024/01/27 00:53:42;;;;;;;7.05;1.77;;;;;;;1.95;100.00;99959.25;6100962;19;20009;-73
2024/01/27 00:55:42;;;;;;;4.68;2.42;;;;;;;1.96;100.00;99960.88;6100874;19;20224;-73
2024/01/27 00:57:43;;;;;;;6.57;1.60;;;;;;;1.90;100.00;99962.88;6106319;19;20017;-73
2024/01/27 00:59:43;;;;;;;6.03;1.67;;;;;;;1.89;100.00;99960.41;6105659;19;20235;-73
2024/01/27 01:01:44;;;;;;;7.18;1.75;;;;;;;1.88;100.00;99965.03;6106106;19;20471;-73
2024/01/27 01:03:45;;;;;;;11.00;1.70;;;;;;;1.86;100.00;99963.69;6105592;19;20336;-72
2024/01/27 01:05:45;;;;;;;5.32;1.92;;;;;;;1.85;100.00;99970.25;6105003;19;20007;-73
2024/01/27 01:07:46;;;;;;;13.85;2.17;;;;;;;1.83;100.00;99976.00;6105667;19;20574;-73
2024/01/27 01:09:46;;;;;;;6.63;1.60;;;;;;;1.81;100.00;99970.00;6106480;19;20506;-73
2024/01/27 01:11:46;;;;;;;7.60;1.45;;;;;;;1.81;100.00;99971.91;6105103;19;20082;-73
2024/01/27 01:13:47;;;;;;;5.63;1.50;;;;;;;1.85;100.00;99973.81;6105509;19;20074;-73
2024/01/27 01:15:47;;;;;;;4.80;1.20;;;;;;;1.85;100.00;99981.19;6104710;19;20691;-73
2024/01/27 01:17:48;;;;;;;5.72;1.52;;;;;;;1.76;100.00;99982.88;6104983;19;20003;-73
2024/01/27 01:19:49;;;;;;;4.07;1.63;;;;;;;1.64;100.00;99984.03;6105092;19;20015;-73
2024/01/27 01:21:49;;;;;;;5.82;1.45;;;;;;;1.64;100.00;99988.69;6105247;19;20003;-73
2024/01/27 01:23:49;;;;;;;7.40;1.70;;;;;;;1.58;100.00;99993.38;6105453;19;20433;-73
2024/01/27 01:25:49;;;;;;;4.47;1.45;;;;;;;1.52;100.00;99990.94;6103837;19;20007;-73
2024/01/27 01:27:50;;;;;;;7.00;1.75;;;;;;;1.53;100.00;100000.75;6105375;19;20074;-73
2024/01/27 01:29:50;;;;;;;3.53;1.40;;;;;;;1.51;100.00;99987.41;6105098;19;19999;-73
2024/01/27 01:31:51;;;;;;;3.50;1.30;;;;;;;1.55;100.00;99993.09;6105377;19;20002;-73
2024/01/27 01:33:51;;;;;;;2.05;1.20;;;;;;;1.55;100.00;99996.63;6105548;19;20030;-73
2024/01/27 01:35:51;;;;;;;6.13;1.63;;;;;;;1.49;100.00;99986.88;6103957;19;20003;-73
2024/01/27 01:37:52;;;;;;;5.38;1.70;;;;;;;1.45;100.00;99987.69;6101676;19;20482;-73
2024/01/27 01:39:52;;;;;;;5.72;1.90;;;;;;;1.51;100.00;99989.31;6103304;19;20078;-73
2024/01/27 01:41:52;;;;;;;4.25;1.85;;;;;;;1.55;100.00;99987.63;6104812;19;20325;-72
2024/01/27 01:43:53;;;;;;;4.20;1.98;;;;;;;1.65;100.00;99991.13;6104083;19;20020;-73
2024/01/27 01:45:53;;;;;;;6.93;1.48;;;;;;;1.64;100.00;99988.69;6102789;19;20577;-73
2024/01/27 01:47:54;;;;;;;6.13;2.17;;;;;;;1.68;100.00;99987.84;6106200;19;20016;-73
2024/01/27 01:49:55;;;;;;;10.30;1.70;;;;;;;1.57;100.00;99997.19;6110461;19;20361;-73
2024/01/27 01:51:56;;;;;;;6.13;1.60;;;;;;;1.52;100.00;99991.75;6111017;19;20010;-73
2024/01/27 01:54:00;;;;;;;7.28;2.63;;;;;;;1.47;100.00;99996.41;6110843;19;20007;-73
2024/01/27 01:56:01;;;;;;;4.85;2.05;;;;;;;1.42;100.00;99991.00;6109688;19;20009;-73
2024/01/27 01:58:01;;;;;;;9.85;2.72;;;;;;;1.36;100.00;99995.66;6110346;19;20010;-73
2024/01/27 02:00:02;;;;;;;6.80;1.45;;;;;;;1.33;100.00;100001.69;6111760;19;20002;-73
2024/01/27 02:02:02;;;;;;;5.25;1.52;;;;;;;1.33;100.00;100002.50;6109947;19;20007;-73
2024/01/27 02:04:04;;;;;;;8.68;2.78;;;;;;;1.37;100.00;100002.75;6110177;19;20245;-73
2024/01/27 02:06:05;;;;;;;7.50;1.50;;;;;;;1.39;100.00;100000.53;6109101;19;20014;-73
2024/01/27 02:08:06;;;;;;;5.38;1.60;;;;;;;1.41;100.00;100012.00;6105393;19;20077;-73
2024/01/27 02:10:16;;;;;;;11.05;1.80;;;;;;;1.37;100.00;100008.19;6110061;19;20835;-73
2024/01/27 02:12:17;;;;;;;11.30;4.18;;;;;;;1.35;100.00;100013.13;6110000;19;20010;-73
2024/01/27 02:14:17;;;;;;;5.55;1.50;;;;;;;1.42;100.00;100016.38;6109907;19;20622;-73
2024/01/27 02:16:18;;;;;;;7.22;1.45;;;;;;;1.40;100.00;100018.53;6108106;19;20388;-73
2024/01/27 02:18:18;;;;;;;9.55;1.80;;;;;;;1.37;100.00;100017.19;6110119;19;19998;-73
2024/01/27 02:20:18;;;;;;;7.82;1.58;;;;;;;1.33;100.00;100007.94;6110083;19;20030;-73
2024/01/27 02:22:18;;;;;;;5.07;2.00;;;;;;;1.36;100.00;100018.28;6109511;19;20011;-73
2024/01/27 02:24:19;;;;;;;4.38;1.92;;;;;;;1.42;100.00;100021.81;6110019;19;20007;-72
2024/01/27 02:26:19;;;;;;;8.93;1.75;;;;;;;1.44;100.00;100021.53;6108707;19;20006;-72
2024/01/27 02:28:20;;;;;;;7.18;1.83;;;;;;;1.40;100.00;100008.44;6109996;19;20007;-72
2024/01/27 02:30:20;;;;;;;6.05;1.63;;;;;;;1.38;100.00;100015.28;6109021;19;20344;-73
2024/01/27 02:32:20;;;;;;;8.43;1.73;;;;;;;1.41;100.00;100006.56;6109451;19;20048;-73
2024/01/27 02:34:20;;;;;;;8.95;1.90;;;;;;;1.39;100.00;100003.28;6109724;19;20542;-72
2024/01/27 02:36:21;;;;;;;7.13;1.77;;;;;;;1.32;100.00;100009.03;6108122;19;20646;-73
2024/01/27 02:38:21;;;;;;;11.23;1.95;;;;;;;1.30;100.00;100011.22;6109846;19;20023;-73
2024/01/27 02:40:21;;;;;;;7.38;1.48;;;;;;;1.21;100.00;100021.06;6110940;19;20028;-72
2024/01/27 02:42:23;;;;;;;8.93;1.83;;;;;;;1.16;100.00;100023.84;6110508;19;20006;-73
2024/01/27 02:44:23;;;;;;;7.35;1.70;;;;;;;1.14;100.00;100020.56;6109988;19;20015;-73
2024/01/27 02:46:24;;;;;;;4.65;1.70;;;;;;;1.10;100.00;100020.31;6108983;19;21623;-73
2024/01/27 02:48:24;;;;;;;5.65;1.52;;;;;;;1.05;100.00;100014.84;6109326;19;20007;-72
2024/01/27 02:50:24;;;;;;;10.20;2.20;;;;;;;1.00;100.00;100023.06;6109034;19;20405;-73
2024/01/27 02:52:25;;;;;;;8.77;1.92;;;;;;;0.98;100.00;100024.41;6110068;19;20066;-73
2024/01/27 02:54:27;;;;;;;7.93;1.80;;;;;;;1.03;100.00;100025.22;6110486;19;20058;-72
2024/01/27 02:56:27;;;;;;;6.35;1.75;;;;;;;1.02;100.00;100028.25;6109377;19;20106;-72
2024/01/27 02:58:28;;;;;;;5.90;2.00;;;;;;;1.07;100.00;100025.47;6109465;19;20010;-72
2024/01/27 03:00:28;;;;;;;11.65;2.00;;;;;;;1.08;100.00;100025.22;6109923;19;20034;-72
2024/01/27 03:02:29;;;;;;;4.68;1.80;;;;;;;1.10;100.00;100025.75;6110558;19;20034;-73
2024/01/27 03:04:29;;;;;;;6.68;1.85;;;;;;;1.11;100.00;100021.94;6110416;19;20010;-73
2024/01/27 03:06:29;;;;;;;5.90;2.30;;;;;;;1.09;100.00;100015.13;6108265;19;20077;-72
2024/01/27 03:08:29;;;;;;;11.57;2.35;;;;;;;1.10;100.00;100027.66;6109699;19;20003;-72
2024/01/27 03:10:31;;;;;;;4.05;1.88;;;;;;;1.24;100.00;100031.44;6108652;19;20003;-72
2024/01/27 03:12:32;;;;;;;6.88;2.47;;;;;;;1.22;100.00;100039.06;6109682;19;20313;-72
2024/01/27 03:14:32;;;;;;;15.50;2.50;;;;;;;1.20;100.00;100040.44;6108354;19;20017;-72
2024/01/27 03:16:33;;;;;;;6.03;2.13;;;;;;;1.21;100.00;100042.06;6108977;19;20074;-73
2024/01/27 03:18:33;;;;;;;7.00;1.85;;;;;;;1.18;100.00;100032.56;6108117;19;20003;-73
2024/01/27 03:20:34;;;;;;;7.93;2.20;;;;;;;1.22;100.00;100043.69;6109897;19;20331;-73
2024/01/27 03:22:34;;;;;;;9.57;2.40;;;;;;;1.23;100.00;100051.59;6109052;19;20400;-72
2024/01/27 03:24:34;;;;;;;7.78;2.08;;;;;;;1.23;100.00;100058.97;6110362;19;20645;-72
2024/01/27 03:26:35;;;;;;;5.68;2.17;;;;;;;1.22;100.00;100054.59;6108149;19;20003;-72
2024/01/27 03:28:35;;;;;;;8.05;1.73;;;;;;;1.24;100.00;100063.31;6109240;19;20487;-72
2024/01/27 03:30:35;;;;;;;11.27;2.25;;;;;;;1.25;100.00;100054.88;6108537;19;20325;-73
2024/01/27 03:32:36;;;;;;;6.53;2.15;;;;;;;1.25;100.00;100070.44;6109050;19;20006;-73
2024/01/27 03:34:43;;;;;;;8.57;1.60;;;;;;;1.22;100.00;100069.06;6109621;19;20019;-73
2024/01/27 03:36:47;;;;;;;5.60;2.60;;;;;;;1.32;100.00;100070.94;6108496;19;20003;-72
2024/01/27 03:38:48;;;;;;;3.35;2.00;;;;;;;1.27;100.00;100077.22;6106950;19;20091;-73
2024/01/27 03:40:48;;;;;;;4.38;1.50;;;;;;;1.24;100.00;100074.22;6108825;19;20006;-72
2024/01/27 03:42:48;;;;;;;5.55;2.20;;;;;;;1.27;100.00;100065.50;6107797;19;20014;-73
2024/01/27 03:44:49;;;;;;;7.65;2.33;;;;;;;1.23;100.00;100075.31;6109636;19;20010;-72
2024/01/27 03:46:51;;;;;;;11.25;2.60;;;;;;;1.19;100.00;100074.25;6107376;19;20345;-72
2024/01/27 03:48:51;;;;;;;5.32;1.80;;;;;;;1.09;100.00;100069.66;6108533;19;20003;-73
2024/01/27 03:50:51;;;;;;;7.53;2.55;;;;;;;0.99;100.00;100067.75;6108643;19;20349;-72
2024/01/27 03:52:52;;;;;;;7.82;2.30;;;;;;;0.97;100.00;100072.66;6109587;19;20002;-73
2024/01/27 03:54:52;;;;;;;5.45;2.20;;;;;;;0.88;100.00;100070.78;6108279;19;20025;-72
2024/01/27 03:56:54;;;;;;;12.38;2.28;;;;;;;0.83;100.00;100075.16;6107274;19;20030;-73
2024/01/27 03:58:54;;;;;;;11.38;3.08;;;;;;;0.79;100.00;100079.50;6107755;19;20019;-73
2024/01/27 04:00:56;;;;;;;9.63;3.78;;;;;;;0.77;100.00;100078.97;6108272;19;20236;-72
2024/01/27 04:02:56;;;;;;;6.15;1.98;;;;;;;0.79;100.00;100081.44;6108358;19;20497;-72
2024/01/27 04:04:56;;;;;;;7.43;2.17;;;;;;;0.75;100.00;100085.81;6108249;19;20011;-73
2024/01/27 04:06:57;;;;;;;5.43;1.77;;;;;;;0.71;100.00;100085.50;6106969;19;20010;-72
2024/01/27 04:08:57;;;;;;;8.25;1.90;;;;;;;0.68;100.00;100090.72;6108125;19;20010;-72
2024/01/27 04:10:57;;;;;;;5.43;2.13;;;;;;;0.63;100.00;100085.25;6107698;19;20029;-72
2024/01/27 04:12:58;;;;;;;8.20;2.78;;;;;;;0.64;100.00;100076.81;6107937;19;20011;-72
2024/01/27 04:14:59;;;;;;;9.27;2.17;;;;;;;0.72;100.00;100075.44;6108389;19;20017;-73
2024/01/27 04:17:00;;;;;;;6.65;2.00;;;;;;;0.69;100.00;100071.34;6106981;19;20498;-72
2024/01/27 04:19:00;;;;;;;5.43;1.73;;;;;;;0.66;100.00;100074.63;6106949;19;20433;-72
2024/01/27 04:21:00;;;;;;;8.13;2.30;;;;;;;0.63;100.00;100079.81;6108181;19;20010;-73
2024/01/27 04:23:01;;;;;;;9.13;2.10;;;;;;;0.56;100.00;100080.06;6107910;19;20395;-72
2024/01/27 04:25:03;;;;;;;5.97;1.77;;;;;;;0.53;100.00;100081.44;6107570;19;20003;-72
2024/01/27 04:27:04;;;;;;;9.07;2.25;;;;;;;0.50;100.00;100081.19;6107204;19;20488;-73
2024/01/27 04:29:04;;;;;;;6.30;2.30;;;;;;;0.48;100.00;100067.81;6106413;19;20017;-72
2024/01/27 04:31:05;;;;;;;6.53;1.92;;;;;;;0.50;100.00;100081.19;6110170;19;20394;-72
2024/01/27 04:33:07;;;;;;;5.65;3.08;;;;;;;0.42;100.00;100084.44;6113280;19;20458;-73
2024/01/27 04:35:11;;;;;;;6.07;2.42;;;;;;;0.34;100.00;100080.38;6113267;19;19999;-72
2024/01/27 04:37:11;;;;;;;9.43;2.30;;;;;;;0.32;100.00;100095.31;6112938;19;20003;-72
2024/01/27 04:39:13;;;;;;;4.53;2.05;;;;;;;0.30;100.00;100087.41;6113210;19;19999;-72
2024/01/27 04:41:13;;;;;;;7.47;2.60;;;;;;;0.38;100.00;100086.88;6112094;19;20023;-72
2024/01/27 04:43:18;;;;;;;6.25;2.20;;;;;;;0.36;100.00;100089.06;6113633;19;20006;-72
2024/01/27 04:45:18;;;;;;;6.35;2.50;;;;;;;0.30;100.00;100090.16;6112146;19;20374;-73
2024/01/27 04:47:18;;;;;;;8.60;2.45;;;;;;;0.30;100.00;100092.88;6104186;19;20014;-73
2024/01/27 04:49:19;;;;;;;10.32;2.35;;;;;;;0.38;100.00;100100.50;6113142;19;20010;-73
2024/01/27 04:51:19;;;;;;;6.15;3.00;;;;;;;0.37;100.00;100098.06;6112685;19;20389;-72
2024/01/27 04:53:20;;;;;;;5.15;2.17;;;;;;;0.31;100.00;100110.03;6113106;19;20372;-73
2024/01/27 04:55:20;;;;;;;11.90;2.90;;;;;;;0.27;100.00;100115.19;6111816;19;20003;-73
2024/01/27 04:57:20;;;;;;;6.68;2.38;;;;;;;0.25;100.00;100120.09;6112881;19;20013;-73
2024/01/27 04:59:21;;;;;;;8.50;2.47;;;;;;;0.26;100.00;100121.72;6112646;19;20028;-73
2024/01/27 05:01:21;;;;;;;5.57;2.13;;;;;;;0.19;100.00;100115.72;6113092;19;20459;-73
2024/01/27 05:03:22;;;;;;;5.05;2.20;;;;;;;0.20;100.00;100115.47;6113386;19;20303;-73
2024/01/27 05:05:22;;;;;;;5.35;1.88;;;;;;;0.21;100.00;100121.72;6110135;19;20007;-73
2024/01/27 05:07:22;;;;;;;10.70;2.70;;;;;;;0.21;100.00;100127.97;6112442;19;20460;-73
2024/01/27 05:09:22;;;;;;;5.78;2.10;;;;;;;0.15;100.00;100118.16;6111796;19;20017;-72
2024/01/27 05:11:30;;;;;;;7.00;2.22;;;;;;;0.24;100.00;100115.72;6112534;19;20356;-72
2024/01/27 05:13:30;;;;;;;5.38;2.40;;;;;;;0.22;100.00;100115.19;6111585;19;20765;-72
2024/01/27 05:15:30;;;;;;;8.05;2.35;;;;;;;0.23;100.00;100117.63;6111073;19;20002;-72
2024/01/27 05:17:30;;;;;;;6.80;2.50;;;;;;;0.25;100.00;100123.66;6111695;19;20002;-72
2024/01/27 05:19:31;;;;;;;8.48;2.33;;;;;;;0.18;100.00;100117.63;6112196;19;20466;-72
2024/01/27 05:21:31;;;;;;;4.00;1.88;;;;;;;0.19;100.00;100121.19;6112017;19;20027;-72
2024/01/27 05:23:31;;;;;;;10.02;2.50;;;;;;;0.14;100.00;100121.16;6111603;19;20493;-72
2024/01/27 05:25:32;;;;;;;7.35;2.33;;;;;;;0.18;100.00;100128.53;6111053;19;20007;-72
2024/01/27 05:27:32;;;;;;;8.85;2.50;;;;;;;0.13;100.00;100116.81;6112263;19;20074;-72
2024/01/27 05:29:32;;;;;;;10.10;2.22;;;;;;;0.09;100.00;100115.72;6111748;19;20003;-72
2024/01/27 05:31:33;;;;;;;9.48;2.40;;;;;;;0.03;100.00;100120.31;6112770;19;20007;-72
2024/01/27 05:33:33;;;;;;;4.65;2.20;;;;;;;0.03;100.00;100120.31;6111364;19;20481;-72
2024/01/27 05:35:33;;;;;;;6.07;2.30;;;;;;;0.03;100.00;100116.78;6110914;19;20038;-72
2024/01/27 05:37:34;;;;;;;7.90;1.92;;;;;;;0.04;100.00;100121.13;6111522;19;20580;-72
2024/01/27 05:39:34;;;;;;;5.82;2.22;;;;;;;0.04;100.00;100112.97;6110903;19;20007;-72
2024/01/27 05:41:34;;;;;;;7.05;2.50;;;;;;;0.08;100.00;100124.94;6111164;19;20002;-72
2024/01/27 05:43:34;;;;;;;5.20;2.45;;;;;;;0.12;100.00;100128.78;6111051;19;20005;-72
2024/01/27 05:45:35;;;;;;;13.98;2.92;;;;;;;0.11;100.00;100125.25;6110771;19;20003;-72
2024/01/27 05:47:35;;;;;;;6.85;2.15;;;;;;;0.13;100.00;100125.78;6107431;19;20254;-72
2024/01/27 05:49:36;;;;;;;8.07;2.15;;;;;;;0.12;100.00;100131.50;6103434;19;20002;-72
2024/01/27 05:51:36;;;;;;;10.57;2.60;;;;;;;0.13;100.00;100131.22;6103450;19;21139;-72
2024/01/27 05:53:37;;;;;;;7.07;2.53;;;;;;;0.13;100.00;100139.41;6103083;19;19995;-72
2024/01/27 05:55:37;;;;;;;10.90;2.47;;;;;;;0.12;100.00;100129.59;6103055;19;20486;-72
2024/01/27 05:57:37;;;;;;;9.80;2.40;;;;;;;0.13;100.00;100128.50;6104697;19;20086;-72
2024/01/27 05:59:37;;;;;;;6.45;2.17;;;;;;;0.06;100.00;100129.84;6104117;19;20107;-72
2024/01/27 06:01:40;;;;;;;9.23;2.85;;;;;;;0.02;100.00;100129.56;6104059;19;20658;-72
2024/01/27 06:03:41;;;;;;;;;;;;;;;0.02;100.00;100143.19;6105627;19;20006;-72
2024/01/27 06:05:42;;;;;;;5.90;2.25;;;;;;;-0.04;100.00;100141.53;6102923;19;19924;-72
2024/01/27 06:07:42;;;;;;;2.53;2.15;;;;;;;-0.06;100.00;100143.69;6103828;19;20318;-72
2024/01/27 06:09:42;;;;;;;7.72;2.65;;;;;;;-0.09;100.00;100150.47;6103809;19;19998;-72
2024/01/27 06:11:43;;;;;;;9.38;2.67;;;;;;;-0.02;100.00;100145.59;6104571;19;20420;-72
2024/01/27 06:13:47;;;;;;;7.53;2.78;;;;;;;-0.06;100.00;100135.53;6104216;19;19999;-72
2024/01/27 06:15:48;;;;;;;10.70;3.00;;;;;;;-0.08;100.00;100135.00;6103064;19;19998;-72
2024/01/27 06:17:48;;;;;;;10.30;2.83;;;;;;;-0.08;100.00;100137.72;6103596;19;20466;-72
2024/01/27 06:19:48;;;;;;;7.15;2.50;;;;;;;-0.12;100.00;100123.00;6104301;19;20019;-72
2024/01/27 06:21:49;;;;;;;9.05;2.92;;;;;;;-0.11;100.00;100152.66;6102854;19;20019;-72
2024/01/27 06:23:49;;;;;;;13.77;3.58;;;;;;;-0.13;100.00;100148.56;6103406;19;20023;-72
2024/01/27 06:25:49;;;;;;;10.32;2.55;;;;;;;-0.09;100.00;100152.38;6102808;19;19995;-72
2024/01/27 06:27:50;;;;;;;8.25;2.58;;;;;;;-0.09;100.00;100155.91;6104456;19;20459;-72
2024/01/27 06:29:50;;;;;;;8.30;2.75;;;;;;;-0.08;100.00;100151.31;6103149;19;20013;-72
2024/01/27 06:31:50;;;;;;;6.65;2.88;;;;;;;-0.10;100.00;100140.69;6103407;19;20364;-72
2024/01/27 06:33:50;;;;;;;9.65;2.95;;;;;;;-0.08;100.00;100156.75;6103651;19;20451;-72
2024/01/27 06:35:51;;;;;;;8.98;2.65;;;;;;;-0.13;100.00;100154.00;6101828;19;20077;-72
2024/01/27 06:37:51;;;;;;;13.82;3.15;;;;;;;-0.15;100.00;100154.28;6103288;19;19999;-72
2024/01/27 06:39:51;;;;;;;11.65;3.25;;;;;;;-0.20;100.00;100153.44;6103034;19;20010;-72
2024/01/27 06:41:52;;;;;;;7.45;2.88;;;;;;;-0.18;100.00;100156.72;6102968;19;20007;-72
2024/01/27 06:43:52;;;;;;;9.60;2.33;;;;;;;-0.18;100.00;100153.97;6103142;19;20003;-72
2024/01/27 06:45:52;;;;;;;5.97;2.55;;;;;;;-0.22;100.00;100158.34;6102713;19;20721;-72
2024/01/27 06:47:53;;;;;;;5.20;2.45;;;;;;;-0.26;100.00;100152.59;6104652;19;20467;-72
2024/01/27 06:49:53;;;;;;;4.72;3.00;;;;;;;-0.23;100.00;100159.44;6108690;19;19994;-72
2024/01/27 06:51:53;;;;;;;7.72;3.03;;;;;;;-0.25;100.00;100159.66;6109672;19;20003;-72
2024/01/27 06:53:53;;;;;;;13.32;4.07;;;;;;;-0.26;100.00;100152.59;6108792;19;20368;-72
2024/01/27 06:55:54;;;;;;;11.75;3.53;;;;;;;-0.20;100.00;100154.25;6108732;19;20029;-72
2024/01/27 06:57:54;;;;;;;9.43;3.38;;;;;;;-0.21;100.00;100157.25;6109259;19;20335;-72
2024/01/27 06:59:55;;;;;;;6.45;3.05;;;;;;;-0.21;100.00;100162.69;6109065;19;20542;-72
2024/01/27 07:01:56;;;;;;;5.40;3.22;;;;;;;-0.24;100.00;100164.06;6109578;19;20451;-72
2024/01/27 07:03:56;;;;;;;13.55;4.38;;;;;;;-0.26;100.00;100163.47;6109520;19;20006;-72
2024/01/27 07:05:56;;;;;;;9.20;4.28;;;;;;;-0.30;100.00;100155.03;6106872;19;20027;-72
2024/01/27 07:07:57;;;;;;;8.13;4.28;;;;;;;-0.29;100.00;100164.84;6108431;19;20010;-72
2024/01/27 07:09:57;;;;;;;10.15;3.30;;;;;;;-0.24;100.00;100164.06;6109801;19;20013;-72
2024/01/27 07:11:58;;;;;;;10.70;3.90;;;;;;;-0.24;100.00;100166.78;6109292;19;20347;-72
2024/01/27 07:13:58;;;;;;;20.27;7.03;;;;;;;-0.23;100.00;100176.56;6109719;19;20317;-72
2024/01/27 07:15:58;;;;;;;24.00;9.48;;;;;;;-0.17;100.00;100186.34;6107229;19;20006;-72
2024/01/27 07:17:59;;;;;;;12.60;4.93;;;;;;;-0.18;100.00;100181.19;6109848;19;20038;-72
2024/01/27 07:19:59;;;;;;;15.82;4.45;;;;;;;-0.15;100.00;100186.13;6109231;19;20013;-72
2024/01/27 07:21:59;;;;;;;8.75;4.32;;;;;;;-0.09;100.00;100187.75;6108595;19;20315;-72
2024/01/27 07:24:00;;;;;;;11.10;4.65;;;;;;;-0.11;100.00;100182.59;6108850;19;20006;-72
2024/01/27 07:26:03;;;;;;;9.07;3.55;;;;;;;-0.08;100.00;100190.22;6108402;19;20013;-72
2024/01/27 07:28:04;;;;;;;11.48;4.40;;;;;;;-0.08;100.00;100190.22;6107751;19;20006;-72
2024/01/27 07:30:06;;;;;;;8.90;3.90;;;;;;;-0.04;100.00;100190.50;6108446;19;20029;-72
2024/01/27 07:32:08;;;;;;;15.05;3.85;;;;;;;-0.07;100.00;100191.88;6107445;19;20009;-72
2024/01/27 07:34:09;;;;;;;10.43;3.20;;;;;;;-0.01;100.00;100189.97;6108184;19;20315;-72
2024/01/27 07:36:11;;;;;;;11.98;3.30;;;;;;;-0.04;100.00;100185.06;6106349;19;20356;-72
2024/01/27 07:38:11;;;;;;;8.63;3.03;;;;;;;-0.03;100.00;100187.50;6107547;19;20017;-72
2024/01/27 07:40:12;;;;;;;8.10;2.90;;;;;;;-0.04;100.00;100191.31;6107685;19;20422;-72
2024/01/27 07:42:12;;;;;;;9.77;3.20;;;;;;;-0.01;100.00;100200.84;6107382;19;20745;-72
2024/01/27 07:44:18;;;;;;;9.45;3.70;;;;;;;-0.02;100.00;100197.31;6107054;19;20045;-72
2024/01/27 07:46:21;;;;;;;15.25;3.47;;;;;;;0.02;100.00;100204.97;6106005;19;20010;-72
2024/01/27 07:48:22;;;;;;;7.35;3.15;;;;;;;0.06;100.00;100206.03;6107813;19;20030;-72
2024/01/27 07:50:23;;;;;;;14.00;4.47;;;;;;;0.06;100.00;100208.78;6108109;19;20022;-72
2024/01/27 07:52:23;;;;;;;7.75;3.53;;;;;;;0.06;100.00;100215.03;6108870;19;20078;-72
2024/01/27 07:54:23;;;;;;;10.18;4.10;;;;;;;0.07;100.00;100221.28;6108452;19;20031;-72
2024/01/27 07:56:24;;;;;;;9.20;3.22;;;;;;;0.10;100.00;100223.50;6105898;19;20006;-72
2024/01/27 07:58:24;;;;;;;14.45;4.50;;;;;;;0.13;100.00;100231.13;6108816;19;20090;-72
2024/01/27 08:00:24;;;;;;;10.98;3.58;;;;;;;0.22;100.00;100238.50;6107449;19;20031;-72
2024/01/27 08:02:26;;;;;;;6.43;3.67;;;;;;;0.26;100.00;100236.06;6108545;19;20497;-72
2024/01/27 08:04:27;;;;;;;10.65;3.17;;;;;;;0.29;100.00;100238.25;6107769;19;20346;-72
2024/01/27 08:06:29;;;;;;;11.93;4.07;;;;;;;0.37;100.00;100239.66;6106856;19;20428;-72
2024/01/27 08:08:30;;;;;;;12.00;4.07;;;;;;;0.42;100.00;100242.38;6107365;19;20010;-72
2024/01/27 08:10:30;;;;;;;8.25;3.80;;;;;;;0.43;100.00;100244.03;6108083;19;20040;-72
2024/01/27 08:12:30;;;;;;;16.20;4.50;;;;;;;0.59;100.00;100236.72;6107749;19;20039;-72
2024/01/27 08:14:31;;;;;;;10.05;3.55;;;;;;;0.68;100.00;100244.09;6108312;19;20028;-72
2024/01/27 08:16:31;;;;;;;8.55;2.97;;;;;;;0.76;100.00;100240.00;6106889;19;20459;-71
2024/01/27 08:18:31;;;;;;;9.18;3.35;;;;;;;0.81;100.00;100246.25;6106609;19;20007;-72
2024/01/27 08:20:32;;;;;;;7.35;3.30;;;;;;;0.90;100.00;100238.38;6107668;19;20010;-72
2024/01/27 08:22:32;;;;;;;4.60;3.00;;;;;;;0.95;100.00;100246.56;6107713;19;20015;-72
2024/01/27 08:24:32;;;;;;;10.55;3.00;;;;;;;0.99;100.00;100253.09;6108315;19;20007;-72
2024/01/27 08:26:33;;;;;;;6.60;3.05;;;;;;;1.08;100.00;100243.31;6106923;19;20007;-72
2024/01/27 08:28:33;;;;;;;10.38;3.28;;;;;;;1.24;100.00;100249.59;6107277;19;20003;-72
2024/01/27 08:30:33;;;;;;;14.48;3.67;;;;;;;1.36;100.00;100244.66;6106794;19;20341;-72
2024/01/27 08:32:34;;;;;;;11.57;3.10;;;;;;;1.42;100.00;100241.94;6108138;19;20451;-71
2024/01/27 08:34:35;;;;;;;11.32;3.78;;;;;;;1.48;100.00;100249.81;6106348;19;20372;-72
2024/01/27 08:36:35;;;;;;;11.13;3.20;;;;;;;1.56;100.00;100245.69;6106268;19;20086;-72
2024/01/27 08:38:35;;;;;;;13.68;3.78;;;;;;;1.61;100.00;100241.06;6107210;19;20045;-72
2024/01/27 08:40:35;;;;;;;8.30;3.13;;;;;;;1.62;100.00;100250.06;6105921;19;20429;-72
2024/01/27 08:42:36;;;;;;;14.60;3.90;;;;;;;1.69;100.00;100253.34;6107317;19;20017;-72
2024/01/27 08:44:36;;;;;;;8.68;3.35;;;;;;;1.73;100.00;100250.84;6107752;19;20625;-72
2024/01/27 08:46:37;;;;;;;7.93;3.35;;;;;;;1.79;100.00;100257.94;6106121;19;20029;-71
2024/01/27 08:48:38;;;;;;;19.38;4.00;;;;;;;1.85;100.00;100251.38;6106654;19;20011;-72
2024/01/27 08:50:39;;;;;;;12.68;3.45;;;;;;;1.84;100.00;100252.47;6106384;19;20027;-72
2024/01/27 08:52:39;;;;;;;9.05;2.80;;;;;;;1.93;100.00;100253.53;6107831;19;20006;-72
2024/01/27 08:54:40;;;;;;;15.52;3.78;;;;;;;1.97;100.00;100257.34;6105736;19;20353;-72
2024/01/27 08:56:41;;;;;;;10.95;3.42;;;;;;;2.07;100.00;100254.59;6106227;19;20006;-71
2024/01/27 08:58:43;;;;;;;9.02;3.25;;;;;;;2.17;100.00;100259.19;6106768;19;20066;-72
2024/01/27 09:00:43;;;;;;;13.70;3.97;;;;;;;2.20;100.00;100248.53;6107555;19;20019;-72
2024/01/27 09:02:44;;;;;;;9.77;3.42;;;;;;;2.23;100.00;100258.91;6106434;19;20006;-71
2024/01/27 09:04:44;;;;;;;11.20;3.42;;;;;;;2.21;100.00;100268.47;6107206;19;20014;-71
2024/01/27 09:06:44;;;;;;;14.38;3.47;;;;;;;2.28;100.00;100268.97;6105541;19;20025;-71
2024/01/27 09:08:45;;;;;;;8.02;3.55;;;;;;;2.31;100.00;100271.13;6106521;19;20033;-72
2024/01/27 09:10:45;;;;;;;10.52;3.58;;;;;;;2.32;100.00;100278.25;6105554;19;20029;-72
2024/01/27 09:12:45;;;;;;;7.28;3.47;;;;;;;2.37;100.00;100266.47;6107716;19;20132;-72
2024/01/27 09:14:46;;;;;;;8.52;3.22;;;;;;;2.41;100.00;100270.31;6106047;19;20014;-72
2024/01/27 09:16:47;;;;;;;11.38;4.03;;;;;;;2.48;100.00;100271.63;6104822;19;20009;-71
2024/01/27 09:18:49;;;;;;;6.63;2.75;;;;;;;2.49;100.00;100262.34;6111793;19;20529;-72
2024/01/27 09:20:49;;;;;;;11.75;3.95;;;;;;;2.54;100.00;100262.28;6112612;19;20577;-72